Мэдээ

Accident: DHL B763 at Beirut on Sep 18th 2023, hard landing


Нийтлэгдсэн:2023-09-29 10:55:48

A DHL International Aviation Boeing 767-300 freighter, registration A9C-DHAB performing flight ES-160 from Bahrain (Bahrain) to Beirut (Lebanon), touched down hard while landing in Beirut at about 19:15L (16:15Z). The crew received minor injuries, the aircraft sustained substantial damage.

Beirut Airport reported the aircraft suffered a hard landing on Sep 18th 2023 causing substantial damage to the aircraft's structure and causing minor injuries to the crew. The aircraft rolled out and taxied to the apron. An accident investigation commission was formed to determine the causes of the accident.

Metars:
OLBA 181800Z 22003KT 9999 FEW026 27/21 Q1010 NOSIG=
OLBA 181700Z 25003KT 200V280 9999 FEW026 28/21 Q1010 NOSIG=
OLBA 181600Z 27004KT 240V340 9999 FEW026 28/22 Q1009 NOSIG=
OLBA 181500Z 25004KT 9999 SCT026 29/21 Q1009 NOSIG=
OLBA 181400Z 26005KT 9999 SCT026 29/22 Q1010 NOSIG=
OLBA 181300Z 24005KT 9999 SCT026 30/22 Q1010 NOSIG=
OLBA 181200Z 25006KT 200V270 CAVOK 30/22 Q1010 NOSIG=

Бусад мэдээлэл



Job vacancies

2024-04-04 10:08:59


2019-2024 onii zorchliin sudalgaa

2024-07-05 11:30:11


Safety recommendation (2023)

2024-05-09 13:03:20


2023 он

2023-12-22 11:14:57


stats

TODAY

57

THIS WEEK

1753

TOTAL

171939